Time;durP1;ratioP1;P1;durP2;ratioP2;P2;SDS_P1;SDS_P2;PMS_P1;PMS_P2;Temp;Humidity;BMP_temperature;BMP_pressure;BME280_temperature;BME280_humidity;BME280_pressure;Samples;Min_cycle;Max_cycle;Signal;HPM_P1;HPM_P2
2021/08/03 00:02:25;;;;;;;5.50;4.97;;;18.00;99.90;;;18.43;57.95;101058.31;4926610;28;97409;-53
2021/08/03 00:04:58;;;;;;;5.57;3.97;;;17.90;99.90;;;18.36;58.07;101051.63;4939097;28;99575;-52
2021/08/03 00:07:27;;;;;;;7.70;4.20;;;17.80;99.90;;;18.29;58.70;101049.44;4940556;28;98641;-46
2021/08/03 00:09:56;;;;;;;6.03;4.07;;;17.70;99.90;;;18.28;58.92;101050.38;4933552;28;99628;-51
2021/08/03 00:12:23;;;;;;;5.90;4.60;;;17.70;99.90;;;18.21;58.55;101057.91;4928938;28;97399;-54
2021/08/03 00:14:54;;;;;;;4.93;4.40;;;17.70;99.90;;;18.11;58.71;101054.94;4926674;28;98139;-45
2021/08/03 00:17:23;;;;;;;5.13;4.63;;;17.60;99.90;;;18.11;59.64;101052.28;4924652;28;98042;-47
2021/08/03 00:19:51;;;;;;;5.20;4.57;;;17.60;99.90;;;18.14;59.35;101051.22;4931144;28;99135;-46
2021/08/03 00:22:17;;;;;;;5.90;4.90;;;17.60;99.90;;;18.18;58.24;101051.91;4926369;28;97872;-51
2021/08/03 00:24:43;;;;;;;7.13;5.87;;;17.60;99.90;;;18.06;58.41;101051.69;4924288;28;99622;-54
2021/08/03 00:27:10;;;;;;;8.53;6.10;;;17.60;99.90;;;18.05;58.83;101051.78;4928846;28;99605;-46
2021/08/03 00:29:37;;;;;;;6.70;6.10;;;17.60;99.90;;;18.09;58.66;101045.31;4927395;28;101844;-53
2021/08/03 00:32:04;;;;;;;7.47;6.73;;;17.60;99.90;;;17.97;58.30;101038.91;4928070;28;96980;-49
2021/08/03 00:34:30;;;;;;;7.57;6.50;;;17.60;99.90;;;18.07;61.65;101040.03;4939855;28;99469;-51
2021/08/03 00:36:57;;;;;;;7.97;7.27;;;17.50;99.90;;;18.06;58.22;101040.16;4930342;28;97965;-51
2021/08/03 00:39:23;;;;;;;8.00;6.83;;;17.50;99.90;;;18.09;58.53;101034.66;4940073;28;98684;-47
2021/08/03 00:42:01;;;;;;;7.93;7.20;;;17.60;99.90;;;18.21;59.27;101035.69;4947133;28;98953;-48
2021/08/03 00:44:39;;;;;;;7.77;7.07;;;17.60;99.90;;;18.36;61.03;101037.41;4945396;28;99876;-48
2021/08/03 00:47:05;;;;;;;9.57;7.73;;;17.70;99.90;;;18.34;58.77;101031.31;4946072;28;98560;-51
2021/08/03 00:49:31;;;;;;;8.33;7.53;;;17.70;99.90;;;18.16;58.11;101033.31;4923150;28;98660;-54
2021/08/03 00:51:57;;;;;;;8.00;7.13;;;17.70;99.90;;;18.04;59.14;101034.91;4941458;28;99841;-47
2021/08/03 00:54:23;;;;;;;8.83;7.93;;;17.60;99.90;;;18.04;59.29;101024.22;4941323;28;98059;-50
2021/08/03 00:56:49;;;;;;;7.73;6.93;;;17.50;99.90;;;18.13;59.60;101018.34;4929780;28;97703;-49
2021/08/03 00:59:15;;;;;;;7.87;7.07;;;17.60;99.90;;;18.20;59.69;101017.94;4922128;28;97289;-54
2021/08/03 01:01:40;;;;;;;8.03;7.23;;;17.70;99.90;;;18.10;58.70;101015.88;4938160;28;98295;-50
2021/08/03 01:04:09;;;;;;;8.30;6.93;;;17.70;99.90;;;18.00;59.65;101022.69;4929708;28;98281;-46
2021/08/03 01:07:07;;;;;;;9.40;7.60;;;17.60;99.90;;;18.01;60.15;101029.75;4936662;28;101739;-53
2021/08/03 01:09:55;;;;;;;9.93;7.97;;;17.50;99.90;;;18.08;59.90;101028.44;4922427;28;97746;-55
2021/08/03 01:12:49;;;;;;;9.63;7.40;;;17.60;99.90;;;18.07;60.26;101013.34;4925834;28;98364;-47
2021/08/03 01:15:33;;;;;;;9.90;7.57;;;17.60;99.90;;;18.16;60.00;101017.28;4918315;28;97759;-53
2021/08/03 01:18:40;;;;;;;10.27;7.10;;;17.60;99.90;;;18.16;59.79;101017.28;4939569;28;99095;-52
2021/08/03 01:21:47;;;;;;;7.50;6.80;;;17.60;99.90;;;18.08;59.60;101017.78;4936192;28;98044;-51
2021/08/03 01:24:16;;;;;;;7.17;6.47;;;17.60;99.90;;;18.08;60.07;101020.44;4936771;28;100496;-48
2021/08/03 01:27:12;;;;;;;8.63;6.53;;;17.60;99.90;;;18.11;59.91;101020.25;4929180;28;99007;-47
2021/08/03 01:29:42;;;;;;;9.50;7.10;;;17.60;99.90;;;18.12;59.55;101008.63;4925860;28;102683;-51
2021/08/03 01:32:10;;;;;;;7.70;6.63;;;17.60;99.90;;;18.18;59.62;101017.19;4944682;28;99699;-47
2021/08/03 01:34:44;;;;;;;7.63;6.43;;;17.70;99.90;;;18.30;61.36;101013.75;4921354;28;98077;-47
2021/08/03 01:37:19;;;;;;;9.80;7.73;;;17.70;99.90;;;18.45;60.56;101007.47;4945247;28;102293;-51
2021/08/03 01:40:12;;;;;;;11.67;8.40;;;17.80;99.90;;;18.48;59.22;101007.25;4961793;28;103906;-47
2021/08/03 01:42:43;;;;;;;10.03;9.03;;;17.90;99.90;;;18.33;59.13;101008.22;4942128;28;99309;-49
2021/08/03 01:45:12;;;;;;;9.57;8.67;;;17.80;99.90;;;18.34;59.72;100999.25;4963867;28;97262;-48
2021/08/03 01:47:38;;;;;;;11.97;9.93;;;17.80;99.90;;;18.28;59.15;101010.34;4938117;28;97316;-49
2021/08/03 01:50:07;;;;;;;11.60;9.60;;;17.80;99.90;;;18.24;60.02;101006.16;4959988;28;97410;-47
2021/08/03 01:52:34;;;;;;;12.60;9.93;;;17.80;99.90;;;18.24;59.53;101004.34;4963590;28;97230;-48
2021/08/03 01:55:00;;;;;;;10.70;9.30;;;17.80;99.90;;;18.27;59.67;101004.13;4946699;28;97397;-46
2021/08/03 01:57:28;;;;;;;9.03;8.13;;;17.80;99.90;;;18.23;59.81;100996.41;4941876;28;97055;-47
2021/08/03 01:59:55;;;;;;;11.53;10.30;;;17.80;99.90;;;18.22;59.54;101002.69;4941262;28;99429;-47
2021/08/03 02:02:22;;;;;;;9.93;8.70;;;17.80;99.90;;;18.22;59.97;101000.00;4956723;28;97262;-49
2021/08/03 02:04:49;;;;;;;10.67;9.27;;;17.70;99.90;;;18.29;60.83;101001.38;4960621;28;97419;-48
2021/08/03 02:07:18;;;;;;;11.63;9.83;;;17.70;99.90;;;18.38;60.91;101000.81;4952469;28;100034;-45
2021/08/03 02:09:45;;;;;;;12.63;9.27;;;17.80;99.90;;;18.49;60.70;100998.28;4963606;28;100439;-51
2021/08/03 02:12:11;;;;;;;9.87;8.87;;;17.90;99.90;;;18.53;59.45;101004.31;4936744;28;97317;-49
2021/08/03 02:14:44;;;;;;;11.03;8.77;;;18.00;99.90;;;18.58;59.83;100997.72;4928208;28;97413;-48
2021/08/03 02:17:15;;;;;;;12.23;8.40;;;18.00;99.90;;;18.49;59.09;100992.09;4922898;28;99480;-51
2021/08/03 02:19:41;;;;;;;9.73;8.50;;;18.00;99.90;;;18.47;59.36;100999.34;4942856;28;103435;-48
2021/08/03 02:22:07;;;;;;;11.60;8.03;;;18.00;99.90;;;18.50;60.03;100994.66;4957298;28;100506;-47
2021/08/03 02:24:33;;;;;;;10.27;8.30;;;18.00;99.90;;;18.46;60.06;100997.63;4941954;28;97190;-45
2021/08/03 02:26:58;;;;;;;10.30;8.13;;;18.00;99.90;;;18.41;60.37;100995.25;4947640;28;97697;-43
2021/08/03 02:29:24;;;;;;;8.57;7.73;;;17.90;99.90;;;18.37;60.74;100988.38;4957170;28;97183;-44
2021/08/03 02:32:06;;;;;;;9.50;8.40;;;17.90;99.90;;;18.47;60.90;100989.53;4952385;28;96979;-43
2021/08/03 02:34:42;;;;;;;8.90;7.33;;;17.90;99.90;;;18.38;60.47;100992.78;4936010;28;97631;-44
2021/08/03 02:37:15;;;;;;;9.60;8.60;;;18.00;99.90;;;18.36;60.45;100992.00;4945552;28;97094;-46
2021/08/03 02:39:42;;;;;;;10.13;8.47;;;17.90;99.90;;;18.35;60.55;100982.28;4953481;28;103441;-44
2021/08/03 02:42:09;;;;;;;9.80;8.00;;;17.90;99.90;;;18.32;60.50;100987.81;4966498;28;97247;-46
2021/08/03 02:44:39;;;;;;;9.30;8.37;;;17.80;99.90;;;18.29;60.28;100985.34;4945158;28;97140;-43
2021/08/03 02:49:52;;;;;;;9.50;8.60;;;17.80;99.90;;;18.29;60.77;100982.69;4945825;28;100452;-44
2021/08/03 02:52:22;;;;;;;8.97;8.03;;;17.80;99.90;;;18.35;60.74;100983.13;4940922;28;97123;-43
2021/08/03 02:54:57;;;;;;;8.97;7.87;;;17.90;99.90;;;18.37;60.20;100975.91;4944705;28;97731;-44
2021/08/03 02:57:24;;;;;;;9.17;8.27;;;17.90;99.90;;;18.33;60.64;100982.38;4940765;28;100049;-45
2021/08/03 02:59:57;;;;;;;10.87;8.37;;;17.90;99.90;;;18.40;60.37;100977.53;4955152;28;97322;-43
2021/08/03 03:02:25;;;;;;;12.87;8.97;;;17.90;99.90;;;18.43;60.68;100980.00;4940462;28;96940;-52
2021/08/03 03:05:02;;;;;;;9.07;8.17;;;18.00;99.90;;;18.44;61.19;100979.03;4936081;28;97363;-43
2021/08/03 03:07:35;;;;;;;9.07;7.73;;;18.00;99.90;;;18.46;61.04;100981.59;4941677;28;97696;-43
2021/08/03 03:10:04;;;;;;;7.70;7.00;;;18.00;99.90;;;18.44;61.42;100984.38;4942589;28;98136;-43
2021/08/03 03:12:35;;;;;;;7.97;7.23;;;18.00;99.90;;;18.48;61.17;100975.22;4941145;28;97259;-43
2021/08/03 03:15:04;;;;;;;8.63;7.73;;;18.00;99.90;;;18.55;61.10;100971.22;4941764;28;96918;-43
2021/08/03 03:17:33;;;;;;;9.50;7.50;;;18.00;99.90;;;18.63;61.48;100971.59;4945249;28;98758;-45
2021/08/03 03:20:03;;;;;;;8.13;7.30;;;18.00;99.90;;;18.59;60.44;100967.38;4945271;28;97086;-44
2021/08/03 03:22:29;;;;;;;8.67;7.03;;;18.00;99.90;;;18.67;60.06;100973.13;4947176;28;97300;-44
2021/08/03 03:24:57;;;;;;;8.97;6.67;;;18.00;99.90;;;18.68;60.99;100966.81;4951458;28;97137;-46
2021/08/03 03:27:24;;;;;;;10.37;7.13;;;18.10;99.90;;;18.64;59.41;100969.78;4942139;28;109910;-43
2021/08/03 03:29:51;;;;;;;7.33;6.53;;;18.10;99.90;;;18.60;59.69;100963.75;4933958;28;98949;-43
2021/08/03 03:32:18;;;;;;;8.50;7.07;;;18.00;99.90;;;18.73;61.08;100964.72;4950055;28;97036;-44
2021/08/03 03:34:44;;;;;;;8.20;6.73;;;18.10;99.90;;;18.72;58.87;100967.47;4934797;28;97134;-44
2021/08/03 03:37:11;;;;;;;8.20;7.40;;;18.10;99.90;;;18.68;59.62;100972.19;4933960;28;102177;-48
2021/08/03 03:39:38;;;;;;;7.37;6.63;;;18.20;99.90;;;18.59;59.58;100967.38;4951648;28;100914;-44
2021/08/03 03:42:06;;;;;;;7.17;6.50;;;18.20;99.90;;;18.59;60.68;100978.06;4951218;28;98188;-46
2021/08/03 03:44:34;;;;;;;7.63;6.80;;;18.10;99.90;;;18.66;59.81;100968.75;4959136;28;97162;-45
2021/08/03 03:47:06;;;;;;;7.50;6.70;;;18.10;99.90;;;18.62;59.09;100969.84;4945888;28;97673;-43
2021/08/03 03:49:39;;;;;;;7.30;6.60;;;18.10;99.90;;;18.52;59.21;100968.75;4922870;28;99229;-44
2021/08/03 03:52:06;;;;;;;7.53;6.57;;;18.10;99.90;;;18.47;59.91;100967.28;4952115;28;98639;-45
2021/08/03 03:54:40;;;;;;;8.23;6.90;;;18.00;99.90;;;18.54;60.17;100964.16;4939176;28;98833;-43
2021/08/03 03:57:10;;;;;;;8.80;6.50;;;18.00;99.90;;;18.59;60.28;100964.69;4949465;28;97311;-43
2021/08/03 03:59:39;;;;;;;7.27;6.47;;;18.10;99.90;;;18.59;59.26;100967.38;4949023;28;101885;-44
2021/08/03 04:02:08;;;;;;;9.37;6.50;;;18.10;99.90;;;18.61;59.16;100970.81;4952717;28;99083;-42
2021/08/03 04:04:38;;;;;;;9.03;6.10;;;18.10;99.90;;;18.52;59.17;100971.41;4947377;28;97638;-43
2021/08/03 04:07:04;;;;;;;9.90;6.90;;;18.10;99.90;;;18.47;59.38;100965.47;4944654;28;99040;-43
2021/08/03 04:09:30;;;;;;;8.20;6.33;;;18.00;99.90;;;18.41;59.88;100964.06;4947638;28;97200;-44
2021/08/03 04:11:56;;;;;;;7.73;7.00;;;17.90;99.90;;;18.51;60.51;100967.00;4946681;28;97404;-44
2021/08/03 04:14:27;;;;;;;8.03;6.47;;;18.00;99.90;;;18.44;59.69;100973.69;4948297;28;97184;-45
2021/08/03 04:16:55;;;;;;;8.60;6.70;;;18.00;99.90;;;18.46;59.70;100965.59;4949633;28;97298;-43
2021/08/03 04:19:21;;;;;;;10.57;7.30;;;17.90;99.90;;;18.39;59.60;100965.13;4951077;28;98773;-44
2021/08/03 04:21:47;;;;;;;7.40;6.60;;;18.00;99.90;;;18.45;59.43;100964.72;4940011;28;97535;-44
2021/08/03 04:24:15;;;;;;;8.47;6.67;;;18.00;99.90;;;18.47;60.09;100968.16;4946622;28;97632;-44
2021/08/03 04:26:41;;;;;;;6.90;6.20;;;18.00;99.90;;;18.54;61.98;100966.81;4953939;28;98150;-45
2021/08/03 04:29:08;;;;;;;6.87;6.13;;;18.00;99.90;;;18.67;61.09;100958.91;4959315;28;97465;-45
2021/08/03 04:31:34;;;;;;;10.07;7.13;;;18.10;99.90;;;18.77;61.32;100959.16;4948281;28;97237;-43
2021/08/03 04:33:59;;;;;;;8.90;6.70;;;18.10;99.90;;;18.80;61.17;100956.28;4946570;28;96839;-44
2021/08/03 04:36:25;;;;;;;8.23;6.40;;;18.20;99.90;;;18.93;62.26;100954.53;4962547;28;100007;-44
2021/08/03 04:38:51;;;;;;;7.67;6.13;;;18.20;99.90;;;19.07;61.56;100941.09;4961031;28;97361;-44
2021/08/03 04:41:17;;;;;;;7.13;6.30;;;18.40;99.90;;;19.23;62.13;100946.28;4946928;28;97185;-44
2021/08/03 04:43:43;;;;;;;9.60;7.10;;;18.60;99.90;;;19.24;58.67;100942.63;4946221;28;97673;-43
2021/08/03 04:46:13;;;;;;;7.47;6.77;;;18.60;99.90;;;19.25;58.79;100939.91;4953296;28;97261;-43
2021/08/03 04:48:39;;;;;;;9.83;6.63;;;18.60;99.90;;;19.26;57.68;100941.59;4940229;28;101415;-45
2021/08/03 04:51:05;;;;;;;9.63;7.20;;;18.70;99.90;;;19.26;59.49;100946.09;4946063;28;101592;-43
2021/08/03 04:53:32;;;;;;;9.80;7.27;;;18.60;99.90;;;19.16;57.81;100940.50;4945856;28;97814;-44
2021/08/03 04:55:58;;;;;;;9.20;7.47;;;18.60;99.90;;;19.08;57.88;100942.81;4948128;28;97096;-44
2021/08/03 04:58:24;;;;;;;10.77;7.80;;;18.60;99.90;;;19.09;58.86;100943.66;4943664;28;97500;-47
2021/08/03 05:00:51;;;;;;;7.93;7.23;;;18.50;99.90;;;19.12;59.00;100941.66;4945634;28;97593;-44
2021/08/03 05:03:17;;;;;;;7.80;6.97;;;18.60;99.90;;;19.18;60.05;100943.91;4947601;28;97406;-42
2021/08/03 05:05:43;;;;;;;8.97;7.13;;;18.60;99.90;;;19.17;58.00;100938.69;4945827;28;96908;-44
2021/08/03 05:08:09;;;;;;;8.27;6.97;;;18.60;99.90;;;19.29;59.19;100935.19;4950386;28;97195;-43
2021/08/03 05:10:36;;;;;;;8.30;6.63;;;18.70;99.90;;;19.27;58.30;100931.75;4940273;28;97540;-44
2021/08/03 05:13:02;;;;;;;10.83;8.17;;;18.70;99.90;;;19.22;58.63;100933.88;4958010;28;97046;-44
2021/08/03 05:15:29;;;;;;;9.37;7.07;;;18.60;99.90;;;19.25;58.58;100934.53;4940025;28;99419;-43
2021/08/03 05:17:55;;;;;;;10.23;7.10;;;18.70;99.90;;;19.15;58.06;100936.13;4962418;28;98474;-43
2021/08/03 05:20:21;;;;;;;8.47;7.00;;;18.60;99.90;;;19.09;58.15;100938.31;4962189;28;101566;-43
2021/08/03 05:22:49;;;;;;;7.10;6.40;;;18.60;99.90;;;19.04;58.41;100930.63;4968774;28;103429;-44
2021/08/03 05:25:15;;;;;;;8.50;6.40;;;18.60;99.90;;;19.09;58.71;100939.19;4942912;28;100310;-42
2021/08/03 05:27:42;;;;;;;7.43;6.67;;;18.60;99.90;;;19.14;58.53;100931.72;4951381;28;100572;-43
2021/08/03 05:30:09;;;;;;;7.43;6.23;;;18.60;99.90;;;19.12;58.48;100933.66;4960771;28;97080;-44
2021/08/03 05:32:35;;;;;;;9.87;6.03;;;18.60;99.90;;;19.14;59.37;100929.06;4945471;28;97258;-44
2021/08/03 05:35:02;;;;;;;8.57;6.50;;;18.60;99.90;;;19.03;58.59;100928.91;4942812;28;99603;-44
2021/08/03 05:37:28;;;;;;;6.47;5.77;;;18.60;99.90;;;19.07;58.24;100933.09;4943983;28;97329;-44
2021/08/03 05:39:55;;;;;;;6.53;5.73;;;18.60;99.90;;;19.14;58.30;100930.88;4942320;28;97553;-44
2021/08/03 05:42:23;;;;;;;6.27;5.67;;;18.60;99.90;;;19.08;57.83;100929.44;4955632;28;98062;-42
2021/08/03 05:44:48;;;;;;;7.97;6.70;;;18.60;99.90;;;19.09;58.07;100923.13;4948712;28;97370;-43
2021/08/03 05:47:16;;;;;;;7.47;5.97;;;18.60;99.90;;;19.06;58.76;100930.50;4938427;28;97358;-43
2021/08/03 05:49:42;;;;;;;8.07;6.17;;;18.60;99.90;;;19.21;59.10;100925.00;4940834;28;97171;-43
2021/08/03 05:52:08;;;;;;;8.07;5.90;;;18.70;99.90;;;19.33;60.33;100925.97;4944862;28;97299;-44
2021/08/03 05:54:34;;;;;;;6.67;5.97;;;18.80;99.90;;;19.35;57.53;100917.84;4961680;28;98445;-44
2021/08/03 05:56:59;;;;;;;6.70;5.80;;;18.90;99.90;;;19.52;59.35;100926.44;4947086;28;97670;-43
2021/08/03 05:59:25;;;;;;;8.80;7.43;;;19.00;99.90;;;19.38;57.19;100925.66;4947642;28;97447;-45
2021/08/03 06:01:51;;;;;;;7.93;6.30;;;18.90;99.90;;;19.48;59.83;100929.44;4943449;28;107641;-44
2021/08/03 06:04:17;;;;;;;8.03;5.80;;;18.90;99.90;;;19.48;58.41;100918.72;4947733;28;97981;-43
2021/08/03 06:06:46;;;;;;;10.67;6.70;;;18.90;99.90;;;19.54;58.94;100918.34;4960935;28;97940;-43
2021/08/03 06:09:14;;;;;;;8.17;6.27;;;18.90;99.90;;;19.44;57.54;100922.59;4960116;28;97272;-46
2021/08/03 06:11:50;;;;;;;7.17;6.47;;;18.90;99.90;;;19.36;57.70;100924.91;4950346;28;97355;-43
2021/08/03 06:14:37;;;;;;;8.23;6.47;;;18.80;99.90;;;19.27;58.00;100921.91;4926353;28;100340;-44
2021/08/03 06:17:15;;;;;;;8.33;6.50;;;18.80;99.90;;;19.16;58.40;100935.16;4964929;28;98486;-42
2021/08/03 06:19:45;;;;;;;8.13;6.47;;;18.70;99.90;;;19.10;57.77;100930.22;4944848;28;98096;-44
2021/08/03 06:22:12;;;;;;;10.27;6.80;;;18.70;99.90;;;19.05;58.82;100934.16;4939606;28;98827;-48
2021/08/03 06:24:40;;;;;;;8.67;6.90;;;18.70;99.90;;;19.09;58.97;100932.97;4949978;28;97707;-43
2021/08/03 06:27:14;;;;;;;4.80;4.40;;;18.70;99.90;;;19.22;61.55;100918.69;4947522;28;97558;-43
2021/08/03 06:29:41;;;;;;;3.80;2.50;;;18.70;99.90;;;19.63;60.80;100912.34;4937575;28;97711;-45
2021/08/03 06:32:09;;;;;;;2.80;2.60;;;19.20;99.90;;;19.90;59.96;100913.09;4926934;28;98645;-42
2021/08/03 06:34:38;;;;;;;2.73;2.40;;;19.60;99.90;;;20.15;59.23;100925.63;4920177;28;98343;-45
2021/08/03 06:37:05;;;;;;;2.80;2.10;;;19.80;99.90;;;20.45;58.44;100922.59;4929946;28;97290;-43
2021/08/03 06:39:31;;;;;;;2.00;1.90;;;20.20;99.90;;;20.73;57.51;100926.78;4918412;28;96942;-42
2021/08/03 06:42:16;;;;;;;10.73;5.47;;;20.60;99.90;;;20.83;54.22;100918.03;4929326;28;97198;-44
2021/08/03 06:44:54;;;;;;;5.33;4.83;;;20.70;99.90;;;20.89;56.68;100915.78;4920994;28;102403;-44
2021/08/03 06:47:26;;;;;;;7.13;4.67;;;20.60;99.90;;;20.92;56.25;100912.84;4925940;28;101649;-43
2021/08/03 06:49:53;;;;;;;7.73;5.00;;;20.50;99.90;;;20.90;56.22;100912.13;4937484;28;98580;-44
2021/08/03 06:52:21;;;;;;;5.53;4.50;;;20.40;99.90;;;20.88;56.25;100908.69;4937255;28;98475;-44
2021/08/03 06:55:03;;;;;;;5.20;3.33;;;20.40;99.90;;;20.93;56.59;100916.38;4942272;28;100115;-45
2021/08/03 06:57:33;;;;;;;6.07;5.50;;;20.40;99.90;;;20.85;55.11;100919.66;4927387;28;99304;-44
2021/08/03 07:00:09;;;;;;;5.03;4.53;;;20.30;99.90;;;20.75;55.29;100913.25;4939973;28;98140;-44
2021/08/03 07:02:47;;;;;;;6.83;5.67;;;20.20;99.90;;;20.61;54.31;100916.09;4921785;28;97960;-43
2021/08/03 07:05:16;;;;;;;6.37;5.43;;;20.10;99.90;;;20.43;55.60;100921.84;4921950;28;99336;-46
2021/08/03 07:07:44;;;;;;;6.80;5.43;;;19.90;99.90;;;20.31;55.97;100922.69;4929239;28;97403;-43
2021/08/03 07:10:13;;;;;;;6.53;5.90;;;19.80;99.90;;;20.31;55.95;100929.88;4937274;28;97517;-50
2021/08/03 07:12:44;;;;;;;8.97;5.80;;;19.80;99.90;;;20.27;56.49;100925.72;4936090;28;100086;-43
2021/08/03 07:15:12;;;;;;;6.57;5.17;;;19.70;99.90;;;20.28;57.73;100916.72;4926556;28;97678;-46
2021/08/03 07:17:41;;;;;;;9.40;5.53;;;19.70;99.90;;;20.28;56.11;100925.59;4940530;28;99773;-42
2021/08/03 07:20:10;;;;;;;10.50;5.53;;;19.80;99.90;;;20.29;57.15;100921.94;4929962;28;98047;-43
2021/08/03 07:22:38;;;;;;;7.93;6.07;;;19.70;99.90;;;20.10;56.96;100922.38;4944688;28;99165;-44
2021/08/03 07:25:05;;;;;;;8.93;6.50;;;19.70;99.90;;;19.96;58.35;100924.34;4910421;28;97696;-43
2021/08/03 07:27:31;;;;;;;7.00;6.00;;;19.50;99.90;;;19.84;57.85;100926.06;4931494;28;99358;-44
2021/08/03 07:29:57;;;;;;;10.53;6.90;;;19.50;99.90;;;19.94;58.43;100920.91;4942790;28;97809;-43
2021/08/03 07:32:23;;;;;;;7.50;6.73;;;19.50;99.90;;;19.87;57.33;100924.03;4924009;28;99044;-43
2021/08/03 07:34:49;;;;;;;8.53;6.43;;;19.50;99.90;;;19.85;57.98;100925.97;4933518;28;98865;-42
2021/08/03 07:37:16;;;;;;;9.07;6.40;;;19.40;99.90;;;19.99;58.88;100929.50;4939918;28;97415;-44
2021/08/03 07:39:43;;;;;;;8.77;6.27;;;19.50;99.90;;;19.98;58.52;100930.47;4933978;28;100562;-43
2021/08/03 07:42:09;;;;;;;2.60;2.33;;;19.50;99.90;;;20.19;59.14;100932.47;4927554;28;97363;-43
2021/08/03 07:44:36;;;;;;;5.40;4.07;;;19.80;99.90;;;20.40;58.31;100932.75;4922287;28;98631;-43
2021/08/03 07:47:03;;;;;;;2.33;2.07;;;20.00;99.90;;;20.56;58.38;100937.88;4930896;28;99501;-43
2021/08/03 07:49:29;;;;;;;1.97;1.80;;;20.20;99.90;;;20.73;57.75;100932.13;4926718;28;97360;-44
2021/08/03 07:51:57;;;;;;;1.90;1.80;;;20.40;99.90;;;20.93;57.03;100927.97;4931880;28;99444;-44
2021/08/03 07:54:23;;;;;;;3.40;2.07;;;20.70;99.90;;;21.08;56.68;100921.44;4927011;28;97856;-43
2021/08/03 07:56:49;;;;;;;1.80;1.70;;;20.90;99.90;;;21.24;56.26;100926.50;4932850;28;97921;-43
2021/08/03 07:59:14;;;;;;;2.27;2.07;;;21.00;99.90;;;21.41;55.72;100927.97;4927473;28;97851;-43
2021/08/03 08:01:40;;;;;;;2.30;1.90;;;21.30;99.90;;;21.54;55.27;100917.97;4928782;28;98675;-44
2021/08/03 08:04:06;;;;;;;1.93;1.83;;;21.40;99.90;;;21.67;54.95;100928.63;4931754;28;97528;-44
2021/08/03 08:06:32;;;;;;;2.27;1.53;;;21.60;99.90;;;21.77;54.61;100923.41;4938632;28;96986;-43
2021/08/03 08:08:58;;;;;;;2.20;2.00;;;21.70;99.90;;;21.88;54.22;100926.09;4940225;28;98378;-44
2021/08/03 08:11:24;;;;;;;2.20;1.67;;;21.80;99.90;;;21.97;54.01;100925.34;4925980;28;98275;-43
2021/08/03 08:13:50;;;;;;;1.83;1.57;;;21.90;99.90;;;22.05;53.80;100916.69;4946093;28;96838;-44
2021/08/03 08:16:15;;;;;;;2.00;1.90;;;22.00;99.90;;;22.12;53.61;100923.31;4929100;28;104575;-44
2021/08/03 08:18:41;;;;;;;2.13;1.67;;;22.10;99.90;;;22.15;53.57;100923.09;4947775;28;97922;-43
2021/08/03 08:21:07;;;;;;;2.30;2.10;;;22.10;99.90;;;22.19;53.44;100909.28;4934210;28;100950;-43
2021/08/03 08:23:34;;;;;;;6.00;3.33;;;22.20;99.90;;;22.18;50.94;100912.94;4942295;28;99150;-47
2021/08/03 08:26:02;;;;;;;1.83;1.73;;;22.20;99.90;;;22.16;53.56;100903.31;4932036;28;97477;-44
2021/08/03 08:28:29;;;;;;;2.50;1.87;;;22.00;99.90;;;22.19;53.42;100892.31;4921570;28;97312;-44
2021/08/03 08:30:55;;;;;;;2.00;1.80;;;22.10;99.90;;;22.22;53.24;100890.22;4928777;28;97199;-43
2021/08/03 08:33:21;;;;;;;2.00;1.90;;;22.20;99.90;;;22.29;53.18;100900.50;4919500;28;99469;-44
2021/08/03 08:35:47;;;;;;;2.13;1.93;;;22.30;99.90;;;22.33;53.06;100888.50;4932726;28;108730;-44
2021/08/03 08:38:13;;;;;;;2.47;1.80;;;22.30;99.90;;;22.35;52.96;100887.41;4926567;28;97925;-43
2021/08/03 08:40:40;;;;;;;2.10;2.00;;;22.30;99.90;;;22.35;53.00;100891.91;4932169;28;100201;-44
2021/08/03 08:43:06;;;;;;;2.50;2.30;;;22.30;99.90;;;22.37;53.04;100895.34;4932656;28;99859;-43
2021/08/03 08:45:32;;;;;;;2.50;1.60;;;22.30;99.90;;;22.38;52.73;100891.66;4943255;28;97715;-44
2021/08/03 08:47:59;;;;;;;2.10;1.67;;;22.40;99.90;;;22.42;52.69;100888.63;4932958;28;96695;-45
2021/08/03 08:50:25;;;;;;;3.93;2.83;;;22.40;99.90;;;22.44;52.66;100885.81;4922343;28;97185;-46
2021/08/03 08:52:53;;;;;;;2.27;1.47;;;22.40;99.90;;;22.43;52.76;100886.78;4930359;28;102012;-45
2021/08/03 08:55:21;;;;;;;6.10;3.50;;;22.40;99.90;;;22.42;52.41;100894.00;4925148;28;98114;-44
2021/08/03 08:57:49;;;;;;;2.60;2.40;;;22.30;99.90;;;22.35;52.49;100882.03;4932097;28;98444;-45
2021/08/03 09:00:15;;;;;;;4.83;3.53;;;22.30;99.90;;;22.35;52.71;100882.03;4935794;28;98476;-44
2021/08/03 09:02:44;;;;;;;2.30;2.10;;;22.30;99.90;;;22.35;53.06;100881.16;4941475;28;100588;-45
2021/08/03 09:05:15;;;;;;;4.30;3.80;;;22.20;99.90;;;22.21;51.31;100885.81;4946340;28;98692;-44
2021/08/03 09:07:59;;;;;;;1.90;1.80;;;22.00;99.90;;;22.18;52.77;100880.72;4905892;28;98102;-43
2021/08/03 09:10:41;;;;;;;1.87;1.73;;;22.00;99.90;;;22.23;53.28;100877.63;4927978;28;97359;-44
2021/08/03 09:13:21;;;;;;;2.03;1.60;;;22.10;99.90;;;22.21;53.42;100874.22;4946473;28;97274;-44
2021/08/03 09:15:56;;;;;;;2.90;1.80;;;22.20;99.90;;;22.26;53.35;100872.88;4931586;28;99964;-45
2021/08/03 09:18:39;;;;;;;1.73;1.60;;;22.20;99.90;;;22.34;53.17;100869.56;4944100;28;97913;-44
2021/08/03 09:21:05;;;;;;;2.83;1.90;;;22.30;99.90;;;22.33;53.09;100870.56;4944907;28;99843;-43
2021/08/03 09:23:47;;;;;;;1.97;1.53;;;22.30;99.90;;;22.41;52.47;100867.22;4929042;28;98653;-43
2021/08/03 09:26:14;;;;;;;2.37;1.20;;;22.40;99.90;;;22.36;53.08;100864.06;4925475;28;98149;-43
2021/08/03 09:29:05;;;;;;;1.70;1.60;;;22.40;99.90;;;22.41;52.84;100869.91;4948173;28;98333;-45
2021/08/03 09:31:34;;;;;;;2.37;2.17;;;22.50;99.90;;;22.40;52.99;100871.75;4919545;28;99921;-44
2021/08/03 09:34:09;;;;;;;1.90;1.70;;;22.40;99.90;;;22.42;52.59;100871.63;4943993;28;97298;-44
2021/08/03 09:36:55;;;;;;;2.00;1.80;;;22.50;99.90;;;22.47;52.75;100869.44;4927365;28;97170;-44
2021/08/03 09:39:39;;;;;;;2.20;2.00;;;22.50;99.90;;;22.44;52.92;100865.16;4928175;28;99407;-44
2021/08/03 09:42:17;;;;;;;1.70;1.60;;;22.50;99.90;;;22.35;53.02;100871.28;4943412;28;99294;-43
2021/08/03 09:44:54;;;;;;;2.90;2.17;;;22.50;99.90;;;22.43;52.88;100874.19;4943161;28;104726;-46
2021/08/03 09:47:22;;;;;;;1.90;1.80;;;22.50;99.90;;;22.35;53.13;100876.66;4914332;28;99734;-46
2021/08/03 09:49:54;;;;;;;1.97;1.67;;;22.40;99.90;;;22.42;52.87;100877.00;4937178;28;98106;-43
2021/08/03 09:52:30;;;;;;;1.90;1.80;;;22.50;99.90;;;22.49;52.72;100884.44;4928649;28;97437;-44
2021/08/03 09:55:10;;;;;;;1.77;1.67;;;22.50;99.90;;;22.47;52.78;100870.28;4928456;28;98080;-45
2021/08/03 09:57:37;;;;;;;2.10;1.90;;;22.50;99.90;;;22.36;52.92;100877.50;4934539;28;102905;-43
2021/08/03 10:00:24;;;;;;;1.80;1.70;;;22.50;99.90;;;22.45;52.69;100874.06;4934529;28;97271;-44
2021/08/03 10:02:52;;;;;;;1.90;1.80;;;22.50;99.90;;;22.34;53.02;100863.34;4925694;28;97283;-46
2021/08/03 10:05:19;;;;;;;2.03;1.80;;;22.40;99.90;;;22.39;52.99;100879.94;4927454;28;97768;-46
2021/08/03 10:07:45;;;;;;;1.83;1.73;;;22.50;99.90;;;22.43;52.86;100878.72;4929823;28;102938;-44
2021/08/03 10:10:13;;;;;;;1.63;1.53;;;22.50;99.90;;;22.36;52.96;100872.13;4942433;28;98655;-50
2021/08/03 10:12:39;;;;;;;2.17;1.57;;;22.50;99.90;;;22.33;53.04;100869.69;4931370;28;98404;-45
2021/08/03 10:15:13;;;;;;;2.80;1.90;;;22.40;99.90;;;22.30;53.17;100878.00;4943803;28;96976;-44
2021/08/03 10:17:40;;;;;;;2.40;1.80;;;22.40;99.90;;;22.33;52.95;100862.50;4927110;28;102417;-46
2021/08/03 10:20:11;;;;;;;1.90;1.70;;;22.40;99.90;;;22.35;52.86;100867.72;4929633;28;99432;-47
2021/08/03 10:22:53;;;;;;;2.07;1.87;;;22.50;99.90;;;22.42;52.80;100866.25;4926438;28;97861;-46
2021/08/03 10:25:20;;;;;;;1.93;1.80;;;22.40;99.90;;;22.40;52.81;100868.19;4940042;28;97689;-44